Terminal Aerodrome Forecast
Issued by NWS

Home | Current Version | Previous Version | Text Only | Print | Product List | Glossary Off
Versions: 1 2 3 4 5 6 7 8 9 10 11 12 13 14 15 16 17 18 19 20 21

638
FTUS43 KBIS 191502 AAA
TAFJMS
TAF AMD
KJMS 191502Z 1915/2012 13014KT 1SM BR OVC002
     FM191700 16021G31KT P6SM BKN140
     FM192000 16020G29KT P6SM VCTS BKN150CB
     FM192300 16016KT P6SM -SHRA VCTS OVC120CB
     FM200300 29014G22KT P6SM OVC070
     FM200600 30011KT P6SM BKN090=

USA.gov is the U.S. government's official web portal to all federal, state and local government web resources and services.